Time;durP1;ratioP1;P1;durP2;ratioP2;P2;SDS_P1;SDS_P2;PMS_P1;PMS_P2;Temp;Humidity;BMP_temperature;BMP_pressure;BME280_temperature;BME280_humidity;BME280_pressure;Samples;Min_cycle;Max_cycle;Signal;HPM_P1;HPM_P2
2024/04/13 00:02:15;;;;;;;;;;;9.60;99.90;;;;;;5476805;26;20346;-64
2024/04/13 00:04:42;;;;;;;;;;;9.60;99.90;;;;;;5482245;26;20522;-64
2024/04/13 00:07:09;;;;;;;;;;;9.50;99.90;;;;;;5481666;26;19960;-64
2024/04/13 00:09:35;;;;;;;;;;;9.40;99.90;;;;;;5466558;26;19947;-64
2024/04/13 00:12:02;;;;;;;;;;;9.40;99.90;;;;;;5473476;26;19957;-64
2024/04/13 00:14:29;;;;;;;;;;;9.40;99.90;;;;;;5480102;26;19935;-64
2024/04/13 00:16:56;;;;;;;;;;;9.30;99.90;;;;;;5461813;26;19936;-64
2024/04/13 00:19:23;;;;;;;;;;;9.30;99.90;;;;;;5473546;26;19939;-64
2024/04/13 00:21:54;;;;;;;;;;;9.30;99.90;;;;;;5471690;26;19929;-64
2024/04/13 00:24:21;;;;;;;;;;;9.20;99.90;;;;;;5483485;26;20273;-64
2024/04/13 00:26:48;;;;;;;;;;;9.10;99.90;;;;;;5481522;26;20333;-64
2024/04/13 00:29:15;;;;;;;;;;;9.20;99.90;;;;;;5483946;26;19952;-65
2024/04/13 00:31:42;;;;;;;;;;;9.20;99.90;;;;;;5473455;26;19936;-64
2024/04/13 00:34:09;;;;;;;;;;;9.20;99.90;;;;;;5473008;26;19939;-64
2024/04/13 00:36:35;;;;;;;;;;;9.20;99.90;;;;;;5451715;26;19956;-64
2024/04/13 00:39:04;;;;;;;;;;;9.20;99.90;;;;;;5478581;26;19934;-64
2024/04/13 00:41:31;;;;;;;;;;;9.20;99.90;;;;;;5476791;26;19928;-64
2024/04/13 00:44:03;;;;;;;;;;;9.20;99.90;;;;;;5470592;26;19964;-64
2024/04/13 00:46:32;;;;;;;;;;;9.20;99.90;;;;;;5475886;26;19939;-64
2024/04/13 00:48:59;;;;;;;;;;;9.20;99.90;;;;;;5476926;26;19929;-64
2024/04/13 00:51:27;;;;;;;;;;;9.20;99.90;;;;;;5483548;26;20372;-64
2024/04/13 00:53:54;;;;;;;;;;;9.20;99.90;;;;;;5483961;26;19939;-64
2024/04/13 00:56:26;;;;;;;;;;;9.20;99.90;;;;;;5480395;26;19933;-64
2024/04/13 00:58:56;;;;;;;;;;;9.20;99.90;;;;;;5480329;26;20000;-64
2024/04/13 01:01:24;;;;;;;;;;;9.20;99.90;;;;;;5475725;26;20011;-65
2024/04/13 01:03:56;;;;;;;;;;;9.20;99.90;;;;;;5475567;26;19928;-64
2024/04/13 01:06:22;;;;;;;;;;;9.20;99.90;;;;;;5477324;26;20364;-64
2024/04/13 01:08:55;;;;;;;;;;;9.20;99.90;;;;;;5478045;26;19935;-64
2024/04/13 01:11:21;;;;;;;;;;;9.10;99.90;;;;;;5482708;26;19928;-64
2024/04/13 01:13:49;;;;;;;;;;;9.10;99.90;;;;;;5478340;26;19928;-64
2024/04/13 01:16:23;;;;;;;;;;;9.00;99.90;;;;;;5453476;26;19968;-64
2024/04/13 01:18:56;;;;;;;;;;;9.00;99.90;;;;;;5481439;26;19956;-64
2024/04/13 01:21:23;;;;;;;;;;;9.00;99.90;;;;;;5484151;26;20391;-64
2024/04/13 01:24:04;;;;;;;;;;;9.00;99.90;;;;;;5481875;26;19935;-64
2024/04/13 01:26:38;;;;;;;;;;;9.00;99.90;;;;;;5482557;26;20380;-64
2024/04/13 01:29:05;;;;;;;;;;;8.90;99.90;;;;;;5482270;26;20166;-64
2024/04/13 01:31:33;;;;;;;;;;;8.90;99.90;;;;;;5487415;26;19935;-64
2024/04/13 01:34:05;;;;;;;;;;;8.80;99.90;;;;;;5481580;26;19928;-64
2024/04/13 01:36:37;;;;;;;;;;;8.80;99.90;;;;;;5487455;26;20282;-64
2024/04/13 01:39:13;;;;;;;;;;;8.70;99.90;;;;;;5480972;26;19934;-64
2024/04/13 01:41:42;;;;;;;;;;;8.70;99.90;;;;;;5488123;26;20394;-64
2024/04/13 01:44:09;;;;;;;;;;;8.60;99.90;;;;;;5482412;26;19932;-64
2024/04/13 01:46:36;;;;;;;;;;;8.60;99.90;;;;;;5487754;26;19928;-64
2024/04/13 01:49:04;;;;;;;;;;;8.60;99.90;;;;;;5484858;26;20371;-65
2024/04/13 01:51:31;;;;;;;;;;;8.60;99.90;;;;;;5479712;26;19956;-64
2024/04/13 01:54:03;;;;;;;;;;;8.60;99.90;;;;;;5455154;26;19939;-64
2024/04/13 01:56:30;;;;;;;;;;;8.50;99.90;;;;;;5487966;26;19960;-64
2024/04/13 01:58:57;;;;;;;;;;;8.50;99.90;;;;;;5478660;26;19997;-64
2024/04/13 02:01:24;;;;;;;;;;;8.40;99.90;;;;;;5487265;26;19928;-64
2024/04/13 02:03:52;;;;;;;;;;;8.40;99.90;;;;;;5487544;26;19956;-64
2024/04/13 02:06:19;;;;;;;;;;;8.40;99.90;;;;;;5485191;26;20293;-64
2024/04/13 02:08:46;;;;;;;;;;;8.40;99.90;;;;;;5487490;26;19984;-64
2024/04/13 02:11:13;;;;;;;;;;;8.40;99.90;;;;;;5487512;26;19939;-64
2024/04/13 02:13:40;;;;;;;;;;;8.40;99.90;;;;;;5487194;26;19931;-64
2024/04/13 02:16:07;;;;;;;;;;;8.40;99.90;;;;;;5479777;26;19928;-64
2024/04/13 02:18:34;;;;;;;;;;;8.40;99.90;;;;;;5484678;26;19928;-64
2024/04/13 02:21:01;;;;;;;;;;;8.40;99.90;;;;;;5482898;26;19935;-64
2024/04/13 02:23:28;;;;;;;;;;;8.40;99.90;;;;;;5487508;26;19928;-64
2024/04/13 02:25:57;;;;;;;;;;;8.40;99.90;;;;;;5487210;26;19935;-64
2024/04/13 02:28:23;;;;;;;;;;;8.40;99.90;;;;;;5483486;26;19955;-64
2024/04/13 02:30:50;;;;;;;;;;;8.40;99.90;;;;;;5479314;26;19939;-65
2024/04/13 02:33:17;;;;;;;;;;;8.40;99.90;;;;;;5484128;26;19952;-64
2024/04/13 02:35:44;;;;;;;;;;;8.50;99.90;;;;;;5487201;26;20473;-64
2024/04/13 02:38:11;;;;;;;;;;;8.40;99.90;;;;;;5478168;26;20312;-64
2024/04/13 02:40:43;;;;;;;;;;;8.50;99.90;;;;;;5486015;26;19998;-64
2024/04/13 02:43:10;;;;;;;;;;;8.40;99.90;;;;;;5483161;26;19991;-64
2024/04/13 02:45:36;;;;;;;;;;;8.40;99.90;;;;;;5479842;26;19996;-64
2024/04/13 02:48:08;;;;;;;;;;;8.40;99.90;;;;;;5478368;26;19955;-64
2024/04/13 02:50:40;;;;;;;;;;;8.40;99.90;;;;;;5479824;26;19956;-64
2024/04/13 02:53:12;;;;;;;;;;;8.40;99.90;;;;;;5482692;26;20391;-64
2024/04/13 02:55:44;;;;;;;;;;;8.40;99.90;;;;;;5477401;26;19942;-65
2024/04/13 02:58:11;;;;;;;;;;;8.40;99.90;;;;;;5485795;26;19996;-64
2024/04/13 03:00:38;;;;;;;;;;;8.30;99.90;;;;;;5486170;26;19940;-64
2024/04/13 03:03:04;;;;;;;;;;;8.30;99.90;;;;;;5487729;26;19935;-65
2024/04/13 03:05:37;;;;;;;;;;;8.30;99.90;;;;;;5476266;26;19927;-64
2024/04/13 03:08:05;;;;;;;;;;;8.30;99.90;;;;;;5482790;26;19960;-64
2024/04/13 03:10:37;;;;;;;;;;;8.30;99.90;;;;;;5479594;26;19928;-64
2024/04/13 03:13:05;;;;;;;;;;;8.30;99.90;;;;;;5478583;26;19960;-64
2024/04/13 03:15:37;;;;;;;;;;;8.30;99.90;;;;;;5479599;26;19961;-64
2024/04/13 03:18:04;;;;;;;;;;;8.20;99.90;;;;;;5479271;26;19964;-64
2024/04/13 03:20:31;;;;;;;;;;;8.20;99.90;;;;;;5485083;26;19928;-64
2024/04/13 03:22:57;;;;;;;;;;;8.20;99.90;;;;;;5483872;26;19956;-65
2024/04/13 03:25:24;;;;;;;;;;;8.10;99.90;;;;;;5486700;26;19997;-64
2024/04/13 03:27:51;;;;;;;;;;;8.10;99.90;;;;;;5487740;26;19934;-64
2024/04/13 03:30:18;;;;;;;;;;;8.10;99.90;;;;;;5455541;26;19932;-64
2024/04/13 03:32:44;;;;;;;;;;;8.10;99.90;;;;;;5485408;26;19935;-65
2024/04/13 03:35:11;;;;;;;;;;;8.10;99.90;;;;;;5479347;26;19963;-64
2024/04/13 03:37:38;;;;;;;;;;;8.00;99.90;;;;;;5483371;26;19928;-64
2024/04/13 03:40:05;;;;;;;;;;;8.00;99.90;;;;;;5482346;26;19928;-64
2024/04/13 03:42:32;;;;;;;;;;;8.10;99.90;;;;;;5480475;26;19928;-64
2024/04/13 03:44:59;;;;;;;;;;;8.00;99.90;;;;;;5479276;26;20261;-64
2024/04/13 03:47:26;;;;;;;;;;;8.00;99.90;;;;;;5480560;26;19928;-64
2024/04/13 03:49:52;;;;;;;;;;;8.00;99.90;;;;;;5480339;26;19960;-64
2024/04/13 03:52:19;;;;;;;;;;;8.00;99.90;;;;;;5485293;26;20276;-64
2024/04/13 03:54:46;;;;;;;;;;;7.90;99.90;;;;;;5487526;26;20337;-64
2024/04/13 03:57:13;;;;;;;;;;;7.90;99.90;;;;;;5453585;26;20298;-64
2024/04/13 03:59:39;;;;;;;;;;;7.90;99.90;;;;;;5475840;26;19935;-64
2024/04/13 04:02:06;;;;;;;;;;;7.80;99.90;;;;;;5475488;26;19932;-64
2024/04/13 04:04:33;;;;;;;;;;;7.90;99.90;;;;;;5477157;26;19944;-65
2024/04/13 04:07:05;;;;;;;;;;;7.80;99.90;;;;;;5479281;26;19936;-64
2024/04/13 04:09:33;;;;;;;;;;;7.90;99.90;;;;;;5480928;26;19960;-64
2024/04/13 04:12:00;;;;;;;;;;;7.80;99.90;;;;;;5480963;26;19928;-64
2024/04/13 04:14:32;;;;;;;;;;;7.90;99.90;;;;;;5484466;26;19996;-64
2024/04/13 04:16:59;;;;;;;;;;;7.90;99.90;;;;;;5472722;26;20273;-64
2024/04/13 04:19:28;;;;;;;;;;;7.90;99.90;;;;;;5454706;26;19940;-64
2024/04/13 04:21:54;;;;;;;;;;;7.90;99.90;;;;;;5486812;26;19928;-64
2024/04/13 04:24:24;;;;;;;;;;;7.90;99.90;;;;;;5485120;26;19939;-64
2024/04/13 04:26:51;;;;;;;;;;;7.90;99.90;;;;;;5478680;26;19936;-64
2024/04/13 04:29:18;;;;;;;;;;;7.90;99.90;;;;;;5478359;26;19960;-64
2024/04/13 04:31:50;;;;;;;;;;;7.90;99.90;;;;;;5478872;26;19936;-64
2024/04/13 04:34:17;;;;;;;;;;;7.90;99.90;;;;;;5478483;26;19929;-64
2024/04/13 04:36:48;;;;;;;;;;;7.90;99.90;;;;;;5477430;26;19936;-64
2024/04/13 04:39:17;;;;;;;;;;;7.90;99.90;;;;;;5480457;26;20599;-64
2024/04/13 04:41:44;;;;;;;;;;;7.80;99.90;;;;;;5484277;26;19932;-64
2024/04/13 04:44:11;;;;;;;;;;;7.80;99.90;;;;;;5479076;26;19952;-64
2024/04/13 04:46:38;;;;;;;;;;;7.80;99.90;;;;;;5486567;26;19928;-64
2024/04/13 04:49:05;;;;;;;;;;;7.80;99.90;;;;;;5485453;26;19934;-64
2024/04/13 04:51:32;;;;;;;;;;;7.80;99.90;;;;;;5474005;26;19940;-64
2024/04/13 04:53:59;;;;;;;;;;;7.80;99.90;;;;;;5485061;26;20331;-64
2024/04/13 04:56:31;;;;;;;;;;;7.70;99.90;;;;;;5474757;26;20284;-64
2024/04/13 04:59:05;;;;;;;;;;;7.70;99.90;;;;;;5479929;26;19928;-64
2024/04/13 05:01:32;;;;;;;;;;;7.60;99.90;;;;;;5482788;26;19928;-64
2024/04/13 05:04:04;;;;;;;;;;;7.60;99.90;;;;;;5470267;26;19936;-64
2024/04/13 05:06:33;;;;;;;;;;;7.60;99.90;;;;;;5478012;26;19936;-64
2024/04/13 05:09:00;;;;;;;;;;;7.60;99.90;;;;;;5475973;26;19939;-64
2024/04/13 05:11:26;;;;;;;;;;;7.60;99.90;;;;;;5482846;26;19935;-64
2024/04/13 05:13:58;;;;;;;;;;;7.60;99.90;;;;;;5486047;26;20361;-64
2024/04/13 05:16:25;;;;;;;;;;;7.60;99.90;;;;;;5484865;26;19927;-64
2024/04/13 05:18:52;;;;;;;;;;;7.70;99.90;;;;;;5483182;26;19971;-64
2024/04/13 05:21:19;;;;;;;;;;;7.70;99.90;;;;;;5482764;26;20391;-64
2024/04/13 05:23:46;;;;;;;;;;;7.70;99.90;;;;;;5479146;26;19965;-64
2024/04/13 05:26:13;;;;;;;;;;;7.70;99.90;;;;;;5476203;26;20277;-64
2024/04/13 05:28:39;;;;;;;;;;;7.70;99.90;;;;;;5480369;26;19939;-64
2024/04/13 05:31:09;;;;;;;;;;;7.70;99.90;;;;;;5478131;26;19996;-64
2024/04/13 05:33:36;;;;;;;;;;;7.70;99.90;;;;;;5472093;26;19935;-64
2024/04/13 05:36:03;;;;;;;;;;;7.70;99.90;;;;;;5473214;26;19956;-64
2024/04/13 05:38:30;;;;;;;;;;;7.70;99.90;;;;;;5484364;26;19939;-64
2024/04/13 05:40:56;;;;;;;;;;;7.70;99.90;;;;;;5483963;26;19928;-64
2024/04/13 05:43:23;;;;;;;;;;;7.80;99.90;;;;;;5483561;26;19960;-65
2024/04/13 05:45:50;;;;;;;;;;;7.80;99.90;;;;;;5478958;26;19940;-64
2024/04/13 05:48:19;;;;;;;;;;;7.90;99.90;;;;;;5474311;26;19932;-64
2024/04/13 05:50:59;;;;;;;;;;;7.90;99.90;;;;;;5479827;26;19973;-64
2024/04/13 05:53:26;;;;;;;;;;;8.00;99.90;;;;;;5476014;26;19932;-64
2024/04/13 05:55:53;;;;;;;;;;;8.10;99.90;;;;;;5477099;26;20383;-64
2024/04/13 05:58:20;;;;;;;;;;;8.10;99.90;;;;;;5478358;26;19959;-64
2024/04/13 06:00:47;;;;;;;;;;;8.20;99.90;;;;;;5482040;26;19928;-65
2024/04/13 06:03:14;;;;;;;;;;;8.30;99.90;;;;;;5478256;26;20308;-64
2024/04/13 06:05:41;;;;;;;;;;;8.40;99.90;;;;;;5483840;26;19952;-65
2024/04/13 06:08:09;;;;;;;;;;;8.40;99.90;;;;;;5479933;26;19935;-64
2024/04/13 06:10:36;;;;;;;;;;;8.50;99.90;;;;;;5478720;26;19932;-65
2024/04/13 06:13:03;;;;;;;;;;;8.60;99.90;;;;;;5482672;26;19928;-64
2024/04/13 06:15:38;;;;;;;;;;;8.60;99.90;;;;;;5478586;26;19956;-64
2024/04/13 06:18:04;;;;;;;;;;;8.60;99.90;;;;;;5487228;26;19939;-64
2024/04/13 06:20:37;;;;;;;;;;;8.70;99.90;;;;;;5478977;26;19940;-64
2024/04/13 06:23:03;;;;;;;;;;;8.80;99.90;;;;;;5488233;26;20400;-64
2024/04/13 06:25:30;;;;;;;;;;;8.80;99.90;;;;;;5482932;26;19996;-64
2024/04/13 06:27:57;;;;;;;;;;;8.90;99.90;;;;;;5482294;26;19931;-65
2024/04/13 06:30:24;;;;;;;;;;;9.00;99.90;;;;;;5486422;26;19928;-65
2024/04/13 06:32:51;;;;;;;;;;;9.00;99.90;;;;;;5480330;26;19935;-65
2024/04/13 06:35:19;;;;;;;;;;;9.10;99.90;;;;;;5478316;26;19994;-65
2024/04/13 06:37:46;;;;;;;;;;;9.10;99.90;;;;;;5485625;26;19928;-65
2024/04/13 06:40:18;;;;;;;;;;;9.10;99.90;;;;;;5486351;26;19927;-64
2024/04/13 06:42:44;;;;;;;;;;;9.10;99.90;;;;;;5477209;26;19935;-65
2024/04/13 06:45:12;;;;;;;;;;;9.20;99.90;;;;;;5478324;26;19936;-64
2024/04/13 06:47:38;;;;;;;;;;;9.20;99.90;;;;;;5472577;26;19934;-64
2024/04/13 06:50:05;;;;;;;;;;;9.30;99.90;;;;;;5475844;26;19941;-64
2024/04/13 06:52:32;;;;;;;;;;;9.30;99.90;;;;;;5478082;26;19928;-65
2024/04/13 06:55:04;;;;;;;;;;;9.40;99.90;;;;;;5478831;26;20037;-64
2024/04/13 06:57:31;;;;;;;;;;;9.50;99.90;;;;;;5465792;26;19935;-64
2024/04/13 07:00:03;;;;;;;;;;;9.60;99.90;;;;;;5484470;26;19936;-64
2024/04/13 07:02:30;;;;;;;;;;;9.70;99.90;;;;;;5481354;26;19962;-64
2024/04/13 07:04:57;;;;;;;;;;;9.80;99.90;;;;;;5480125;26;20427;-64
2024/04/13 07:07:24;;;;;;;;;;;9.90;99.90;;;;;;5482912;26;19932;-64
2024/04/13 07:09:51;;;;;;;;;;;10.00;99.90;;;;;;5456127;26;19942;-63
2024/04/13 07:12:18;;;;;;;;;;;10.10;99.90;;;;;;5470743;26;19957;-64
2024/04/13 07:14:45;;;;;;;;;;;10.30;99.90;;;;;;5469812;26;19928;-64
2024/04/13 07:17:16;;;;;;;;;;;10.40;99.90;;;;;;5470320;26;19928;-64
2024/04/13 07:19:43;;;;;;;;;;;10.50;99.90;;;;;;5467035;26;20754;-66
2024/04/13 07:22:10;;;;;;;;;;;10.60;99.90;;;;;;5469827;26;19934;-66
2024/04/13 07:24:37;;;;;;;;;;;10.70;99.90;;;;;;5478750;26;19939;-66
2024/04/13 07:27:04;;;;;;;;;;;10.80;99.90;;;;;;5466110;26;20299;-65
2024/04/13 07:29:31;;;;;;;;;;;10.90;99.90;;;;;;5466704;26;19961;-65
2024/04/13 07:32:03;;;;;;;;;;;11.00;99.90;;;;;;5474472;26;19935;-65
2024/04/13 07:34:29;;;;;;;;;;;11.10;99.90;;;;;;5471423;26;19928;-66
2024/04/13 07:36:57;;;;;;;;;;;11.20;99.90;;;;;;5469021;26;19952;-63
2024/04/13 07:39:28;;;;;;;;;;;11.30;99.90;;;;;;5471905;26;19953;-63
2024/04/13 07:42:01;;;;;;;;;;;11.40;99.90;;;;;;5480078;26;20672;-64
2024/04/13 07:44:28;;;;;;;;;;;11.50;99.90;;;;;;5465160;26;19941;-63
2024/04/13 07:46:54;;;;;;;;;;;11.60;99.90;;;;;;5465219;26;20380;-64
2024/04/13 07:49:21;;;;;;;;;;;11.80;99.90;;;;;;5477603;26;19960;-64
2024/04/13 07:51:48;;;;;;;;;;;11.90;99.90;;;;;;5447722;26;19928;-64
2024/04/13 07:54:15;;;;;;;;;;;12.00;99.90;;;;;;5482758;26;20391;-64
2024/04/13 07:56:47;;;;;;;;;;;12.10;99.90;;;;;;5476526;26;19928;-64
2024/04/13 07:59:18;;;;;;;;;;;12.20;99.90;;;;;;5484421;26;19935;-64
2024/04/13 08:01:45;;;;;;;;;;;12.40;99.90;;;;;;5477529;26;19928;-64
2024/04/13 08:04:17;;;;;;;;;;;12.50;99.90;;;;;;5471178;26;19936;-64
2024/04/13 08:06:44;;;;;;;;;;;12.60;99.90;;;;;;5471474;26;20021;-64
2024/04/13 08:09:11;;;;;;;;;;;12.70;99.90;;;;;;5468982;26;19935;-63
2024/04/13 08:11:42;;;;;;;;;;;12.80;99.90;;;;;;5484982;26;19942;-65
2024/04/13 08:14:09;;;;;;;;;;;12.90;99.90;;;;;;5476263;26;19940;-64
2024/04/13 08:16:36;;;;;;;;;;;13.10;99.90;;;;;;5482771;26;19993;-65
2024/04/13 08:19:08;;;;;;;;;;;13.20;99.90;;;;;;5482280;26;19981;-64
2024/04/13 08:21:35;;;;;;;;;;;13.30;99.90;;;;;;5473040;26;19952;-64
2024/04/13 08:24:02;;;;;;;;;;;13.40;99.90;;;;;;5484160;26;19934;-64
2024/04/13 08:26:33;;;;;;;;;;;13.60;99.90;;;;;;5478773;26;20372;-64
2024/04/13 08:29:05;;;;;;;;;;;13.70;99.90;;;;;;5469270;26;19935;-65
2024/04/13 08:31:32;;;;;;;;;;;13.80;99.90;;;;;;5477027;26;20349;-64
2024/04/13 08:33:59;;;;;;;;;;;13.90;99.90;;;;;;5472928;26;19939;-66
2024/04/13 08:36:25;;;;;;;;;;;14.10;99.90;;;;;;5472509;26;19961;-64
2024/04/13 08:38:52;;;;;;;;;;;14.30;99.90;;;;;;5483772;26;19996;-64
2024/04/13 08:41:35;;;;;;;;;;;14.40;99.90;;;;;;5477333;26;19928;-70
2024/04/13 08:44:02;;;;;;;;;;;14.50;99.90;;;;;;5477968;26;20301;-65
2024/04/13 08:46:31;;;;;;;;;;;14.70;99.90;;;;;;5467962;26;19928;-65
2024/04/13 08:48:59;;;;;;;;;;;14.90;99.90;;;;;;5483972;26;19928;-65
2024/04/13 08:51:26;;;;;;;;;;;15.10;99.90;;;;;;5477220;26;20388;-64
2024/04/13 08:53:53;;;;;;;;;;;15.30;99.90;;;;;;5476164;26;19997;-64
2024/04/13 08:56:26;;;;;;;;;;;15.50;99.90;;;;;;5472151;26;19953;-64
2024/04/13 08:58:57;;;;;;;;;;;15.70;99.90;;;;;;5477491;26;19932;-64
2024/04/13 09:01:27;;;;;;;;;;;15.90;99.90;;;;;;5479642;26;19935;-64
2024/04/13 09:03:54;;;;;;;;;;;16.10;99.90;;;;;;5484053;26;19935;-64
2024/04/13 09:06:21;;;;;;;;;;;16.20;99.90;;;;;;5451414;26;20328;-64
2024/04/13 09:08:49;;;;;;;;;;;16.30;99.90;;;;;;5481134;26;19967;-64
2024/04/13 09:11:16;;;;;;;;;;;16.50;99.90;;;;;;5469532;26;19928;-64
2024/04/13 09:13:43;;;;;;;;;;;16.60;99.90;;;;;;5478305;26;20000;-64
2024/04/13 09:16:10;;;;;;;;;;;16.70;99.90;;;;;;5476052;26;19935;-64
2024/04/13 09:18:42;;;;;;;;;;;16.80;99.90;;;;;;5480284;26;19957;-64
2024/04/13 09:21:09;;;;;;;;;;;16.90;99.90;;;;;;5481917;26;19928;-64
2024/04/13 09:23:36;;;;;;;;;;;17.00;99.90;;;;;;5472506;26;19935;-64
2024/04/13 09:26:03;;;;;;;;;;;17.10;99.90;;;;;;5473200;26;19940;-64
2024/04/13 09:28:39;;;;;;;;;;;17.20;99.90;;;;;;5481966;26;19935;-64
2024/04/13 09:31:11;;;;;;;;;;;17.40;99.90;;;;;;5482160;26;19996;-64
2024/04/13 09:33:39;;;;;;;;;;;17.50;99.90;;;;;;5473031;26;20351;-64
2024/04/13 09:36:06;;;;;;;;;;;17.50;99.90;;;;;;5484273;26;19935;-64
2024/04/13 09:38:33;;;;;;;;;;;17.50;99.90;;;;;;5485130;26;20391;-64
2024/04/13 09:41:00;;;;;;;;;;;17.60;99.90;;;;;;5477751;26;19940;-64
2024/04/13 09:43:27;;;;;;;;;;;17.70;99.90;;;;;;5480499;26;19928;-64
2024/04/13 09:46:02;;;;;;;;;;;17.90;99.90;;;;;;5481427;26;19936;-64
2024/04/13 09:48:30;;;;;;;;;;;18.00;99.90;;;;;;5481669;26;19935;-64
2024/04/13 09:50:58;;;;;;;;;;;18.10;99.90;;;;;;5474342;26;19928;-64
2024/04/13 09:53:25;;;;;;;;;;;18.20;99.90;;;;;;5482016;26;19951;-64
2024/04/13 09:55:52;;;;;;;;;;;18.30;99.90;;;;;;5485815;26;19936;-64
2024/04/13 09:58:24;;;;;;;;;;;18.30;99.90;;;;;;5487477;26;19952;-64
2024/04/13 10:01:01;;;;;;;;;;;18.50;99.90;;;;;;5481220;26;19960;-64
2024/04/13 10:03:33;;;;;;;;;;;18.50;99.90;;;;;;5455048;26;19936;-64
2024/04/13 10:06:09;;;;;;;;;;;18.60;99.90;;;;;;5478933;26;19932;-64
2024/04/13 10:08:41;;;;;;;;;;;18.70;99.90;;;;;;5486288;26;19928;-64
2024/04/13 10:11:09;;;;;;;;;;;18.80;99.90;;;;;;5478887;26;19972;-64
2024/04/13 10:13:44;;;;;;;;;;;19.00;99.90;;;;;;5476094;26;20428;-64
2024/04/13 10:16:13;;;;;;;;;;;19.10;99.90;;;;;;5479773;26;19936;-63
2024/04/13 10:18:40;;;;;;;;;;;19.20;99.90;;;;;;5480347;26;20293;-64
2024/04/13 10:21:13;;;;;;;;;;;19.30;99.90;;;;;;5481742;26;19942;-64
2024/04/13 10:23:41;;;;;;;;;;;19.40;99.90;;;;;;5476563;26;19981;-64
2024/04/13 10:26:13;;;;;;;;;;;19.50;99.90;;;;;;5484119;26;19936;-64
2024/04/13 10:28:41;;;;;;;;;;;19.60;99.90;;;;;;5479791;26;20257;-64
2024/04/13 10:31:17;;;;;;;;;;;19.60;99.90;;;;;;5487971;26;20273;-64
2024/04/13 10:33:52;;;;;;;;;;;19.60;99.90;;;;;;5474684;26;19961;-64
2024/04/13 10:36:25;;;;;;;;;;;19.80;99.90;;;;;;5485063;26;19935;-63
2024/04/13 10:38:58;;;;;;;;;;;19.90;99.90;;;;;;5478893;26;19951;-63
2024/04/13 10:41:28;;;;;;;;;;;20.10;99.90;;;;;;5476456;26;19928;-64
2024/04/13 10:43:56;;;;;;;;;;;20.10;99.90;;;;;;5479945;26;19956;-63
2024/04/13 10:46:24;;;;;;;;;;;20.20;99.90;;;;;;5486507;26;19935;-64
2024/04/13 10:48:56;;;;;;;;;;;20.30;99.90;;;;;;5479368;26;19928;-63
2024/04/13 10:51:22;;;;;;;;;;;20.40;99.90;;;;;;5479978;26;19940;-63
2024/04/13 10:53:50;;;;;;;;;;;20.40;99.90;;;;;;5486318;26;20372;-63
2024/04/13 10:56:17;;;;;;;;;;;20.50;99.90;;;;;;5479828;26;19929;-63
2024/04/13 10:58:44;;;;;;;;;;;20.60;99.90;;;;;;5483955;26;19927;-63
2024/04/13 11:01:11;;;;;;;;;;;20.60;99.90;;;;;;5484855;26;19928;-63
2024/04/13 11:03:37;;;;;;;;;;;20.60;99.90;;;;;;5476717;26;19932;-63
2024/04/13 11:06:10;;;;;;;;;;;20.70;99.90;;;;;;5471435;26;19927;-63
2024/04/13 11:08:38;;;;;;;;;;;20.80;99.90;;;;;;5465410;26;19997;-63
2024/04/13 11:11:04;;;;;;;;;;;20.90;99.90;;;;;;5481013;26;19964;-63
2024/04/13 11:13:36;;;;;;;;;;;21.00;99.90;;;;;;5476658;26;19942;-64
2024/04/13 11:16:05;;;;;;;;;;;21.10;99.90;;;;;;5481235;26;19928;-64
2024/04/13 11:18:31;;;;;;;;;;;21.20;99.90;;;;;;5473441;26;19944;-64
2024/04/13 11:21:04;;;;;;;;;;;21.20;99.90;;;;;;5484138;26;19928;-64
2024/04/13 11:23:36;;;;;;;;;;;21.30;99.90;;;;;;5479024;26;19942;-64
2024/04/13 11:26:03;;;;;;;;;;;21.40;99.90;;;;;;5471380;26;19937;-64
2024/04/13 11:28:30;;;;;;;;;;;21.50;99.90;;;;;;5472245;26;19932;-64
2024/04/13 11:30:57;;;;;;;;;;;21.70;99.90;;;;;;5469926;26;19928;-64
2024/04/13 11:33:31;;;;;;;;;;;21.80;99.90;;;;;;5478933;26;20284;-64
2024/04/13 11:35:59;;;;;;;;;;;21.80;99.90;;;;;;5476604;26;19932;-64
2024/04/13 11:38:32;;;;;;;;;;;22.00;99.90;;;;;;5474255;26;19936;-64
2024/04/13 11:41:04;;;;;;;;;;;22.10;99.90;;;;;;5472196;26;19934;-64
2024/04/13 11:43:31;;;;;;;;;;;22.20;99.90;;;;;;5481088;26;20264;-64
2024/04/13 11:46:03;;;;;;;;;;;22.30;99.90;;;;;;5479168;26;19936;-64
2024/04/13 11:48:31;;;;;;;;;;;22.40;99.90;;;;;;5476483;26;19964;-64
2024/04/13 11:51:03;;;;;;;;;;;22.40;99.90;;;;;;5483373;26;19963;-64
2024/04/13 11:53:35;;;;;;;;;;;22.50;99.90;;;;;;5480494;26;19933;-63
2024/04/13 11:56:02;;;;;;;;;;;22.70;99.90;;;;;;5482166;26;19996;-64
2024/04/13 11:58:34;;;;;;;;;;;22.80;99.90;;;;;;5484232;26;19940;-64
2024/04/13 12:01:02;;;;;;;;;;;22.90;99.90;;;;;;5479235;26;19936;-64
2024/04/13 12:03:33;;;;;;;;;;;23.00;99.90;;;;;;5478565;26;19967;-64
2024/04/13 12:06:00;;;;;;;;;;;23.00;99.90;;;;;;5478982;26;19928;-64
2024/04/13 12:08:32;;;;;;;;;;;23.00;99.90;;;;;;5473781;26;19935;-64
2024/04/13 12:10:59;;;;;;;;;;;23.10;96.00;;;;;;5476204;26;20385;-64
2024/04/13 12:13:31;;;;;;;;;;;23.00;99.90;;;;;;5476255;26;19928;-64
2024/04/13 12:15:58;;;;;;;;;;;23.00;99.00;;;;;;5478924;26;19936;-64
2024/04/13 12:18:25;;;;;;;;;;;23.10;97.60;;;;;;5478579;26;19932;-63
2024/04/13 12:20:57;;;;;;;;;;;23.00;96.30;;;;;;5478573;26;20392;-64
2024/04/13 12:23:27;;;;;;;;;;;23.00;96.30;;;;;;5480764;26;19958;-64
2024/04/13 12:25:59;;;;;;;;;;;23.00;95.00;;;;;;5477034;26;19964;-64
2024/04/13 12:28:25;;;;;;;;;;;23.00;96.40;;;;;;5452856;26;20029;-63
2024/04/13 12:30:57;;;;;;;;;;;23.10;95.50;;;;;;5477146;26;20409;-64
2024/04/13 12:33:24;;;;;;;;;;;23.10;95.90;;;;;;5482328;26;19935;-64
2024/04/13 12:35:58;;;;;;;;;;;23.00;96.10;;;;;;5473651;26;19939;-64
2024/04/13 12:38:31;;;;;;;;;;;23.00;96.60;;;;;;5474715;26;20301;-64
2024/04/13 12:41:03;;;;;;;;;;;23.10;96.80;;;;;;5483851;26;19961;-64
2024/04/13 12:43:30;;;;;;;;;;;23.20;96.80;;;;;;5481205;26;20393;-64
2024/04/13 12:46:02;;;;;;;;;;;23.30;95.40;;;;;;5482647;26;19943;-64
2024/04/13 12:48:34;;;;;;;;;;;23.30;94.50;;;;;;5481614;26;20003;-64
2024/04/13 12:51:01;;;;;;;;;;;23.30;93.90;;;;;;5462952;26;19968;-64
2024/04/13 12:53:27;;;;;;;;;;;23.30;95.80;;;;;;5471009;26;19927;-64
2024/04/13 12:55:54;;;;;;;;;;;23.30;95.20;;;;;;5468137;26;19961;-64
2024/04/13 12:58:21;;;;;;;;;;;23.30;95.30;;;;;;5478000;26;19927;-64
2024/04/13 13:00:53;;;;;;;;;;;23.20;94.30;;;;;;5469740;26;19928;-63
2024/04/13 13:03:20;;;;;;;;;;;23.30;95.50;;;;;;5478380;26;20411;-66
2024/04/13 13:05:52;;;;;;;;;;;23.20;94.90;;;;;;5484178;26;20349;-64
2024/04/13 13:08:18;;;;;;;;;;;23.30;94.90;;;;;;5477364;26;20387;-64
2024/04/13 13:10:50;;;;;;;;;;;23.30;94.40;;;;;;5471006;26;20435;-64
2024/04/13 13:13:17;;;;;;;;;;;23.30;93.90;;;;;;5478784;26;19955;-64
2024/04/13 13:15:44;;;;;;;;;;;23.30;93.90;;;;;;5479146;26;20336;-64
2024/04/13 13:18:12;;;;;;;;;;;23.30;94.80;;;;;;5477664;26;20276;-64
2024/04/13 13:20:40;;;;;;;;;;;23.30;95.30;;;;;;5481165;26;19928;-64
2024/04/13 13:23:12;;;;;;;;;;;23.40;94.50;;;;;;5482355;26;19956;-64
2024/04/13 13:25:38;;;;;;;;;;;23.50;94.60;;;;;;5485343;26;20033;-64
2024/04/13 13:28:06;;;;;;;;;;;23.70;96.70;;;;;;5475452;26;19936;-64
2024/04/13 13:30:36;;;;;;;;;;;23.80;94.00;;;;;;5487618;26;19950;-64
2024/04/13 13:33:08;;;;;;;;;;;23.80;93.00;;;;;;5473752;26;20299;-64
2024/04/13 13:35:37;;;;;;;;;;;23.80;93.00;;;;;;5475599;26;19932;-64
2024/04/13 13:38:04;;;;;;;;;;;23.80;91.90;;;;;;5482001;26;19934;-63
2024/04/13 13:40:36;;;;;;;;;;;23.80;91.90;;;;;;5474418;26;19942;-64
2024/04/13 13:43:03;;;;;;;;;;;23.80;92.10;;;;;;5473014;26;19928;-63
2024/04/13 13:45:35;;;;;;;;;;;23.60;93.10;;;;;;5481336;26;19949;-64
2024/04/13 13:48:02;;;;;;;;;;;23.60;94.10;;;;;;5478646;26;19952;-64
2024/04/13 13:50:28;;;;;;;;;;;23.70;93.90;;;;;;5486094;26;20493;-65
2024/04/13 13:52:55;;;;;;;;;;;23.60;93.00;;;;;;5483892;26;19929;-64
2024/04/13 13:55:27;;;;;;;;;;;23.70;93.80;;;;;;5481512;26;19943;-65
2024/04/13 13:58:00;;;;;;;;;;;23.60;93.50;;;;;;5482884;26;19929;-64
2024/04/13 14:00:27;;;;;;;;;;;23.70;92.60;;;;;;5485102;26;19940;-64
2024/04/13 14:02:54;;;;;;;;;;;23.70;92.40;;;;;;5483548;26;19927;-64
2024/04/13 14:05:21;;;;;;;;;;;23.90;93.00;;;;;;5473169;26;19940;-63
2024/04/13 14:07:48;;;;;;;;;;;24.00;92.80;;;;;;5474117;26;19947;-63
2024/04/13 14:10:20;;;;;;;;;;;24.10;93.10;;;;;;5471863;26;19940;-63
2024/04/13 14:12:47;;;;;;;;;;;24.20;93.40;;;;;;5473479;26;19928;-62
2024/04/13 14:15:19;;;;;;;;;;;24.30;93.70;;;;;;5472580;26;19993;-64
2024/04/13 14:17:50;;;;;;;;;;;24.50;92.20;;;;;;5475382;26;19948;-64
2024/04/13 14:20:22;;;;;;;;;;;24.60;91.80;;;;;;5475021;26;19939;-63
2024/04/13 14:22:49;;;;;;;;;;;24.80;91.30;;;;;;5466599;26;19928;-64
2024/04/13 14:25:22;;;;;;;;;;;24.90;91.90;;;;;;5479164;26;19932;-64
2024/04/13 14:27:54;;;;;;;;;;;25.00;90.00;;;;;;5477129;26;19928;-63
2024/04/13 14:30:21;;;;;;;;;;;24.90;87.70;;;;;;5471365;26;19940;-63
2024/04/13 14:32:48;;;;;;;;;;;25.00;90.00;;;;;;5506090;26;19946;-63